Nelson, Canada
Current Conditions -  °F | °C
As of 1:00 AM on Wednesday 28 Jan 2015 (Local Time) from CYXC Reporting Station
Few Clouds Few Clouds  
Wind Chill: -4°   Ceiling: Unl
Heat Index: -4°   Visibility: 25mi
Dew Point: -5°   Wind: 2mph
Humidity: 93%   Direction: NA
Pressure: 30.04"   Gusts: NA
Location:  49.48°N, 117.28°W
Report Text: CYXC 280900Z VRB02KT 25SM FEW090 M04/M05 A3004 RMK AC1 SLP205
Loading
Personal Weather Stations






























Interactive Weather Map New forecast layout! Learn more

10-Day Weather Forecast

Advertisements
Track Severe Weather on mobile